Latest Coastal Weather Observations for Groote Eylandt Airport

IDD60701

Issued at 2:41 am CST Wednesday 18 January 2017 (issued every 10 minutes, with the page automatically refreshed every 10 minutes)

About coastal observations | Map of coastal stations | Coastal observations for NT | Marine services | Other Formats
Station Details ID: 014518 Name: GROOTE EYLANDT AIRPORT Lat: -13.97 Lon: 136.46 Height: 13.7 m
Data from the previous 72 hours. | See also: Recent months at Groote Eylandt Airport
Date/Time
CST
Temp
°C
Wind Pressure Rain since
9am
mm
Weather Cloud Vis
km
Sea
Height
m
Swell
Dir  Spd
kts
Gust
kts
hPa Trend Height
m
Period
s
Dir
18/02:30am 27.9 N 4 6 1009.1 - 0.0 - - 10 - - - -
18/02:00am 28.0 N 5 7 1009.1 - 0.0 - - 10 - - - -
18/01:30am 28.0 N 5 7 1009.1 - 0.0 - - 10 - - - -
18/01:00am 28.1 N 4 6 1009.7 - 0.0 - - 10 - - - -
18/12:30am 28.2 N 4 7 1009.9 - 0.0 - - 10 - - - -
18/12:00am 28.1 NNE 5 7 1009.8 - 0.0 - Mostly cloudy 10 - - - -
 
Date/Time
CST
Temp
°C
Wind Pressure Rain since
9am
mm
Weather Cloud Vis
km
Sea
Height
m
Swell
Dir  Spd
kts
Gust
kts
hPa Trend Height
m
Period
s
Dir
17/11:30pm 28.1 N 4 5 1010.0 - 0.0 - - 10 - - - -
17/11:00pm 28.3 N 4 6 1010.0 - 0.0 - - 10 - - - -
17/10:30pm 28.4 N 5 7 1009.8 - 0.0 - Partly cloudy 10 - - - -
17/10:00pm 28.5 NNE 5 7 1009.4 - 0.0 - - 10 - - - -
17/09:30pm 28.7 N 6 8 1009.4 - 0.0 - Partly cloudy 10 - - - -
17/09:00pm 28.7 N 6 8 1009.3 - 0.0 - Mostly cloudy 10 - - - -
17/08:30pm 28.8 N 6 10 1009.0 - 0.0 - Partly cloudy 10 - - - -
17/08:00pm 28.7 NNE 7 11 1008.5 - 0.0 - - 10 - - - -
17/07:30pm 28.9 NE 7 11 1008.0 - 0.0 - Partly cloudy 10 - - - -
17/07:00pm 29.2 NE 8 12 1007.9 - 0.0 - - 10 - - - -
17/06:30pm 29.5 NE 9 13 1007.8 - 0.0 - - 10 - - - -
17/06:00pm 30.1 NNE 11 16 1007.6 - 0.0 - - 10 - - - -
17/05:30pm 31.3 NNE 9 14 1007.4 - 0.0 - - 10 - - - -
17/05:00pm 31.4 NNE 9 13 1006.9 - 0.0 - - 10 - - - -
17/04:30pm 32.0 NNE 8 11 1006.4 - 0.0 - - 10 - - - -
17/04:00pm 31.9 NNE 8 11 1006.5 - 0.0 - - 10 - - - -
17/03:30pm 32.0 NNE 9 13 1006.6 - 0.0 - - 10 - - - -
17/03:00pm 31.8 NNE 7 11 1006.8 - 0.0 - Mostly cloudy 10 - - - -
17/02:30pm 31.8 N 8 11 1007.0 - 0.0 - Partly cloudy 10 - - - -
17/02:00pm 31.9 NNE 8 14 1007.4 - 0.0 - - 10 - - - -
17/01:30pm 32.2 NW 8 12 1007.7 - 0.0 - - 10 - - - -
17/01:00pm 32.0 NNW 7 11 1008.2 - 0.0 - Partly cloudy 10 - - - -
17/12:30pm 31.4 NW 7 11 1008.2 - 0.0 - Partly cloudy 10 - - - -
17/12:00pm 31.2 NW 7 11 1008.6 - 0.0 - Cloudy 10 - - - -
17/11:30am 30.9 NW 9 13 1009.0 - 0.0 - Partly cloudy 10 - - - -
17/11:00am 30.6 NW 8 13 1009.3 - 0.0 - Partly cloudy 10 - - - -
17/10:30am 30.4 NNW 9 13 1009.8 - 0.0 - Partly cloudy 10 - - - -
17/10:00am 29.9 NNW 9 11 1010.0 - 0.0 - Partly cloudy 10 - - - -
17/09:30am 29.5 NNW 10 13 1010.1 - 0.0 - - 10 - - - -
17/09:00am 29.1 N 7 11 1010.2 - 28.2 - - 10 - - - -
17/08:30am 28.7 NNW 8 11 1010.0 - 28.2 - - 10 - - - -
17/08:00am 27.7 N 5 7 1009.8 - 28.2 - - 10 - - - -
17/07:30am 27.1 N 4 7 1009.6 - 28.2 - - 10 - - - -
17/07:00am 26.7 N 3 5 1008.9 - 28.2 - Partly cloudy 10 - - - -
17/06:30am 26.6 N 4 5 1008.4 - 28.2 - Partly cloudy 10 - - - -
17/06:00am 26.9 N 6 7 1007.8 - 28.2 - - 10 - - - -
17/05:30am 26.5 N 6 9 1007.6 - 28.2 - Partly cloudy 10 - - - -
17/05:00am 25.0 NNE 2 4 1007.1 - 28.2 - Partly cloudy 10 - - - -
17/04:30am 24.6 CALM 0 0 1006.7 - 28.2 - Partly cloudy 10 - - - -
17/04:00am 24.6 NNE 4 5 1006.4 - 28.2 - Partly cloudy 10 - - - -
17/03:30am 24.6 NNE 3 4 1006.2 - 28.2 - - 10 - - - -
17/03:00am 24.8 NNE 3 4 1006.1 - 28.2 - Cloudy 10 - - - -
17/02:30am 24.7 NNE 4 5 1006.1 - 28.2 - - 10 - - - -
17/02:00am 24.7 NNE 3 4 1006.2 - 28.2 - - 10 - - - -
17/01:30am 24.8 NNE 5 6 1006.1 - 28.2 - - 10 - - - -
17/01:00am 24.7 NNE 3 5 1006.4 - 28.2 - Partly cloudy 10 - - - -
17/12:30am 24.9 N 5 7 1006.9 - 28.0 - Partly cloudy 10 - - - -
17/12:00am 25.2 NNW 5 7 1007.5 - 28.0 Showers Cloudy 10 - - - -
 
Date/Time
CST
Temp
°C
Wind Pressure Rain since
9am
mm
Weather Cloud Vis
km
Sea
Height
m
Swell
Dir  Spd
kts
Gust
kts
hPa Trend Height
m
Period
s
Dir
16/11:30pm 25.6 WNW 5 6 1008.3 - 28.0 - - 10 - - - -
16/11:00pm 25.2 W 5 7 1008.4 - 28.0 - Partly cloudy 10 - - - -
16/10:30pm 25.2 CALM 0 0 1008.1 - 27.6 - Partly cloudy 10 - - - -
16/10:00pm 25.3 CALM 0 0 1007.9 - 27.6 - Cloudy 10 - - - -
16/09:30pm 25.2 WNW 3 4 1007.9 - 27.6 - Partly cloudy 10 - - - -
16/09:00pm 25.1 CALM 0 0 1007.8 - 27.6 - Cloudy 10 - - - -
16/08:30pm 25.1 CALM 0 3 1007.4 - 27.6 - - 10 - - - -
16/08:00pm 25.4 CALM 0 0 1007.1 - 27.6 - - 10 - - - -
16/07:30pm 25.4 CALM 0 1 1006.9 - 27.6 - Partly cloudy 10 - - - -
16/07:00pm 25.6 WNW 4 5 1006.7 - 27.4 - Partly cloudy 10 - - - -
16/06:30pm 25.6 WNW 4 5 1006.9 - 27.2 - Partly cloudy 10 - - - -
16/06:02pm 25.3 WNW 6 7 1006.5 - 27.0 - Partly cloudy 10 - - - -
16/06:00pm 25.3 W 6 7 1006.4 - 27.0 Showers Cloudy 10 - - - -
16/05:30pm 24.9 SW 3 7 1005.7 - 26.8 - Partly cloudy 10 - - - -
16/05:25pm 24.8 SSW 3 6 1005.6 - 26.8 - Partly cloudy 10 - - - -
16/05:17pm 24.6 SSW 3 6 1005.6 - 26.6 - Partly cloudy 9 - - - -
16/05:00pm 24.2 SW 6 9 1005.7 - 25.8 - Partly cloudy 4 - - - -
16/04:45pm 24.6 WSW 8 15 1005.8 - 22.4 - Partly cloudy 0.7 - - - -
16/04:30pm 23.9 W 15 28 1005.8 - 12.0 - Partly cloudy 0.5 - - - -
16/04:15pm 26.5 NW 11 27 1005.4 - 2.4 - Partly cloudy 2 - - - -
16/04:14pm 28.0 NW 10 17 1005.2 - 2.4 - Partly cloudy 2 - - - -
16/04:12pm 28.4 NW 9 13 1004.8 - 1.2 - Partly cloudy 5 - - - -
16/04:00pm 29.0 NNW 7 9 1004.8 - 0.2 - Partly cloudy 10 - - - -
16/03:30pm 28.6 NNW 10 15 1005.0 - 0.2 - Partly cloudy 10 - - - -
16/03:00pm 28.4 NNW 11 14 1005.2 - 0.2 - Cloudy 10 - - - -
16/02:49pm 28.3 NNW 11 15 1005.3 - 0.2 - Partly cloudy 10 - - - -
16/02:37pm 28.4 NNW 12 16 1005.4 - 0.2 - Partly cloudy 10 - - - -
16/02:30pm 28.6 NNW 13 16 1005.4 - 0.2 - Partly cloudy 10 - - - -
16/02:11pm 28.7 NNW 13 20 1005.5 - 0.2 - Partly cloudy 10 - - - -
16/02:00pm 28.9 NNW 14 19 1005.6 - 0.2 - Partly cloudy 10 - - - -
16/01:45pm 29.2 NNW 14 19 1005.8 - 0.2 - Partly cloudy 10 - - - -
16/01:30pm 29.1 NNW 14 19 1005.9 - 0.0 - Partly cloudy 10 - - - -
16/01:16pm 29.1 NNW 11 16 1006.2 - 0.0 - Partly cloudy 10 - - - -
16/01:00pm 28.5 NNW 11 17 1006.6 - 0.0 - Partly cloudy 10 - - - -
16/12:45pm 28.6 N 12 18 1006.8 - 0.0 - Partly cloudy 10 - - - -
16/12:33pm 28.9 NNW 12 17 1006.9 - 0.0 - Partly cloudy 10 - - - -
16/12:30pm 29.4 NNW 11 17 1006.9 - 0.0 - Partly cloudy 10 - - - -
16/12:00pm 28.6 NNW 12 17 1007.1 - 0.0 - Cloudy 10 - - - -
16/11:30am 28.7 NNW 11 15 1007.5 - 0.0 - Cloudy 10 - - - -
16/11:10am 28.0 NNW 7 15 1007.7 - 0.0 - Partly cloudy 10 - - - -
16/11:00am 27.7 NNW 6 9 1007.8 - 0.0 - Partly cloudy 10 - - - -
16/10:30am 27.1 NNW 7 10 1007.7 - 0.0 - Partly cloudy 10 - - - -
16/10:00am 27.4 NW 7 10 1007.4 - 0.0 - Partly cloudy 10 - - - -
16/09:42am 27.0 NNW 8 13 1007.5 - 0.0 - Partly cloudy 10 - - - -
16/09:30am 26.9 NNW 8 11 1007.6 - 0.0 - Partly cloudy 10 - - - -
16/09:00am 26.9 N 7 10 1007.6 - 22.0 Showers Cloudy 10 - - - -
16/08:30am 26.4 N 5 7 1007.6 - 22.0 - Partly cloudy 10 - - - -
16/08:00am 25.7 N 3 5 1007.3 - 22.0 - - 10 - - - -
16/07:30am 25.0 NNE 3 5 1006.9 - 22.0 - - 10 - - - -
16/07:00am 24.3 ENE 3 4 1007.0 - 22.0 - - 10 - - - -
16/06:30am 24.1 CALM 0 0 1006.9 - 21.8 - - 10 - - - -
16/06:00am 23.9 ENE 2 3 1006.8 - 21.6 Rain Cloudy 10 - - - -
16/05:30am 24.0 CALM 0 3 1006.0 - 21.4 - Cloudy 10 - - - -
16/05:00am 23.7 E 5 6 1005.8 - 20.2 - Cloudy 10 - - - -
16/04:30am 23.8 ENE 5 6 1006.1 - 18.6 - Cloudy 10 - - - -
16/04:00am 23.7 S 1 4 1006.5 - 16.4 - Partly cloudy 10 - - - -
16/03:50am 23.6 S 4 5 1006.5 - 15.6 - Partly cloudy 9 - - - -
16/03:30am 24.0 SW 3 5 1006.9 - 13.8 - Partly cloudy 2 - - - -
16/03:25am 24.0 SSE 3 5 1007.3 - 11.6 - Partly cloudy 5 - - - -
16/03:00am 24.2 ESE 5 7 1006.9 - 8.8 Rain Cloudy 10 - - - -
16/02:54am 24.1 ESE 5 9 1006.9 - 8.6 - Partly cloudy 10 - - - -
16/02:39am 24.7 E 7 11 1006.6 - 7.4 - Partly cloudy 10 - - - -
16/02:30am 24.9 SE 5 10 1006.9 - 7.0 - Partly cloudy 10 - - - -
16/02:00am 25.2 NNE 5 7 1006.1 - 6.2 - Partly cloudy 10 - - - -
16/01:30am 25.2 NE 6 8 1006.0 - 5.8 - Partly cloudy 10 - - - -
16/01:00am 25.3 NE 5 7 1005.8 - 5.2 - - 10 - - - -
16/12:30am 25.4 ENE 4 6 1006.1 - 4.8 - Partly cloudy 10 - - - -
16/12:00am 25.5 ESE 5 7 1006.4 - 4.8 Showers Cloudy 10 - - - -
 
Date/Time
CST
Temp
°C
Wind Pressure Rain since
9am
mm
Weather Cloud Vis
km
Sea
Height
m
Swell
Dir  Spd
kts
Gust
kts
hPa Trend Height
m
Period
s
Dir
15/11:30pm 25.7 E 6 8 1006.9 - 4.8 - Partly cloudy 10 - - - -
15/11:20pm 25.9 NE 6 8 1007.0 - 4.8 - Partly cloudy 10 - - - -
15/11:02pm 25.7 NNE 5 7 1007.0 - 4.8 - Partly cloudy 10 - - - -
15/11:00pm 25.8 NNE 5 7 1007.1 - 4.8 - Partly cloudy 10 - - - -
15/10:30pm 26.6 NE 6 9 1007.3 - 4.8 - Partly cloudy 10 - - - -
15/10:25pm 26.7 N 4 9 1007.2 - 4.6 - Partly cloudy 10 - - - -
15/10:00pm 28.3 WNW 3 9 1006.9 - 2.8 - Partly cloudy 5 - - - -
15/09:58pm 28.6 WNW 2 7 1006.9 - 2.6 - Partly cloudy 5 - - - -
15/09:30pm 28.8 N 2 3 1006.8 - 0.2 - Partly cloudy 10 - - - -
15/09:00pm 28.5 N 3 4 1006.8 - 0.2 - Cloudy 10 - - - -
15/08:30pm 29.5 CALM 0 0 1006.7 - 0.2 - Partly cloudy 10 - - - -
15/08:00pm 29.7 NNE 3 4 1006.3 - 0.2 - Partly cloudy 10 - - - -
15/07:30pm 29.7 NNE 4 5 1005.6 - 0.2 - - 10 - - - -
15/07:00pm 30.2 NW 4 5 1005.3 - 0.2 - - 10 - - - -
15/06:30pm 30.5 W 2 4 1005.0 - 0.2 - - 10 - - - -
15/06:00pm 30.8 CALM 0 0 1005.0 - 0.2 - - 10 - - - -
15/05:30pm 30.9 W 3 4 1005.3 - 0.2 - - 10 - - - -
15/05:00pm 30.9 W 5 8 1005.4 - 0.2 - - 10 - - - -
15/04:30pm 31.5 SW 5 7 1005.3 - 0.2 - - 9 - - - -
15/04:00pm 32.3 WSW 5 7 1005.5 - 0.2 - Partly cloudy 10 - - - -
15/03:30pm 32.5 SW 5 7 1005.4 - 0.2 - - 10 - - - -
15/03:00pm 32.8 WSW 5 8 1005.3 - 0.2 - Mostly clear 10 - - - -
15/02:30pm 32.7 WSW 6 10 1005.7 - 0.2 - - 10 - - - -
15/02:00pm 32.8 WSW 5 7 1006.2 - 0.2 - Partly cloudy 10 - - - -
15/01:30pm 32.6 W 6 8 1006.8 - 0.2 - - 10 - - - -
15/01:00pm 31.6 W 6 9 1007.2 - 0.2 - - 10 - - - -
15/12:30pm 31.5 W 4 7 1007.9 - 0.2 - Partly cloudy 10 - - - -
15/12:00pm 31.2 WNW 9 12 1008.1 - 0.2 - - 10 - - - -
15/11:30am 31.1 W 9 14 1008.4 - 0.2 - Partly cloudy 10 - - - -
15/11:00am 30.8 W 9 13 1008.6 - 0.2 - - 10 - - - -
15/10:30am 30.7 WNW 9 13 1008.9 - 0.2 - Partly cloudy 10 - - - -
15/10:00am 30.6 WNW 9 12 1009.0 - 0.0 - - 10 - - - -
15/09:30am 30.4 WNW 9 13 1009.2 - 0.0 - Partly cloudy 10 - - - -
15/09:00am 30.5 NW 10 13 1009.3 - 0.0 - Partly cloudy 10 - - - -
15/08:30am 29.8 NW 10 14 1009.5 - 0.0 - - 10 - - - -
15/08:00am 29.3 NW 8 10 1009.3 - 0.0 - Partly cloudy 10 - - - -
15/07:30am 28.8 NW 8 11 1009.2 - 0.0 - Partly cloudy 10 - - - -
15/07:00am 28.4 NW 7 9 1008.9 - 0.0 - Partly cloudy 10 - - - -
15/06:30am 28.2 NW 7 9 1008.5 - 0.0 - - 10 - - - -
15/06:00am 28.1 NW 7 8 1008.0 - 0.0 - Mostly clear 10 - - - -
15/05:30am 28.1 NW 6 10 1007.8 - 0.0 - Partly cloudy 10 - - - -
15/05:00am 28.1 NNW 6 9 1007.5 - 0.0 - Partly cloudy 10 - - - -
15/04:30am 28.1 NNW 6 9 1007.3 - 0.0 - Partly cloudy 10 - - - -
15/04:00am 28.2 NW 7 11 1007.1 - 0.0 - - 10 - - - -
15/03:30am 28.2 NW 6 10 1007.1 - 0.0 - - 10 - - - -
15/03:00am 28.1 NNW 6 8 1006.9 - 0.0 - Mostly clear 10 - - - -

Other Formats:

Comma delimited format used in spreadsheet applications
http://www.bom.gov.au/fwo/IDD60701/IDD60701.94153.axf

JavaScript Object Notation format (JSON) in row-major order
http://www.bom.gov.au/fwo/IDD60701/IDD60701.94153.json